createdAt,value
2022-11-16T00:01:51.457Z,100397.31
2022-11-16T00:04:18.731Z,100371.97
2022-11-16T00:06:46.913Z,100383.38
2022-11-16T00:09:23.103Z,100379.91
2022-11-16T00:11:53.415Z,100391.16
2022-11-16T00:14:22.264Z,100382.50
2022-11-16T00:16:49.425Z,100363.31
2022-11-16T00:19:16.713Z,100384.25
2022-11-16T00:21:43.944Z,100377.19
2022-11-16T00:24:14.227Z,100362.41
2022-11-16T00:26:41.869Z,100376.31
2022-11-16T00:29:16.992Z,100374.50
2022-11-16T00:31:44.964Z,100384.09
2022-11-16T00:34:13.048Z,100370.94
2022-11-16T00:36:40.343Z,100387.41
2022-11-16T00:39:07.702Z,100396.13
2022-11-16T00:41:34.808Z,100381.38
2022-11-16T00:44:02.252Z,100361.34
2022-11-16T00:46:29.494Z,100363.16
2022-11-16T00:48:57.109Z,100369.19
2022-11-16T00:51:24.685Z,100348.25
2022-11-16T00:53:52.197Z,100359.56
2022-11-16T00:56:19.826Z,100350.03
2022-11-16T00:58:46.891Z,100353.50
2022-11-16T01:01:14.596Z,100365.53
2022-11-16T01:03:42.252Z,100351.66
2022-11-16T01:06:11.910Z,100321.91
2022-11-16T01:08:40.789Z,100357.69
2022-11-16T01:11:27.546Z,100340.25
2022-11-16T01:13:55.873Z,100358.59
2022-11-16T01:16:24.248Z,100356.00
2022-11-16T01:18:53.536Z,100354.28
2022-11-16T01:21:21.507Z,100344.69
2022-11-16T01:23:49.427Z,100342.94
2022-11-16T01:26:16.988Z,100322.09
2022-11-16T01:28:44.569Z,100321.28
2022-11-16T01:31:13.110Z,100322.16
2022-11-16T01:33:41.252Z,100338.81
2022-11-16T01:36:16.499Z,100323.13
2022-11-16T01:38:45.875Z,100337.06
2022-11-16T01:41:17.451Z,100347.47
2022-11-16T01:44:15.533Z,100339.66
2022-11-16T01:46:53.346Z,100336.22
2022-11-16T01:49:24.627Z,100340.56
2022-11-16T01:51:59.667Z,100334.63
2022-11-16T01:54:31.381Z,100338.09
2022-11-16T01:57:03.942Z,100342.53
2022-11-16T01:59:48.529Z,100334.66
2022-11-16T02:02:19.865Z,100335.56
2022-11-16T02:04:49.400Z,100328.66
2022-11-16T02:08:04.609Z,100332.38
2022-11-16T02:10:35.178Z,100335.91
2022-11-16T02:13:30.333Z,100328.91
2022-11-16T02:16:19.375Z,100330.69
2022-11-16T02:18:57.123Z,100316.88
2022-11-16T02:21:42.911Z,100297.59
2022-11-16T02:24:16.006Z,100320.34
2022-11-16T02:26:49.365Z,100310.81
2022-11-16T02:29:31.872Z,100312.53
2022-11-16T02:32:02.590Z,100308.22
2022-11-16T02:34:37.570Z,100297.75
2022-11-16T02:37:08.164Z,100288.28
2022-11-16T02:39:39.237Z,100299.00
2022-11-16T02:42:11.584Z,100301.56
2022-11-16T02:44:45.205Z,100276.19
2022-11-16T02:47:20.860Z,100295.44
2022-11-16T02:49:56.608Z,100292.81
2022-11-16T02:52:24.864Z,100295.41
2022-11-16T02:54:52.527Z,100292.03
2022-11-16T02:58:10.246Z,100286.88
2022-11-16T03:01:09.030Z,100288.63
2022-11-16T03:04:05.728Z,100274.69
2022-11-16T03:06:37.714Z,100274.72
2022-11-16T03:09:31.696Z,100271.16
2022-11-16T03:12:02.109Z,100263.38
2022-11-16T03:14:36.894Z,100257.28
2022-11-16T03:17:09.387Z,100258.16
2022-11-16T03:19:46.695Z,100243.31
2022-11-16T03:22:28.900Z,100267.75
2022-11-16T03:24:56.242Z,100255.56
2022-11-16T03:28:11.552Z,100255.53
2022-11-16T03:30:45.279Z,100258.94
2022-11-16T03:33:24.846Z,100245.06
2022-11-16T03:36:11.042Z,100258.16
2022-11-16T03:38:41.641Z,100244.13
2022-11-16T03:41:11.687Z,100246.69
2022-11-16T03:43:42.784Z,100251.88
2022-11-16T03:46:10.820Z,100253.66
2022-11-16T03:48:40.657Z,100249.31
2022-11-16T03:51:14.525Z,100244.03
2022-11-16T03:53:42.959Z,100244.09
2022-11-16T03:56:12.373Z,100249.28
2022-11-16T03:58:39.822Z,100253.66
2022-11-16T04:01:07.418Z,100250.19
2022-11-16T04:03:34.741Z,100242.28
2022-11-16T04:06:20.926Z,100242.25
2022-11-16T04:09:07.622Z,100240.53
2022-11-16T04:11:56.608Z,100234.44
2022-11-16T04:14:44.259Z,100244.84
2022-11-16T04:17:35.143Z,100229.03
2022-11-16T04:20:21.877Z,100232.53
2022-11-16T04:23:23.477Z,100231.66
2022-11-16T04:25:52.484Z,100221.19
2022-11-16T04:28:31.720Z,100213.25
2022-11-16T04:31:23.315Z,100233.31
2022-11-16T04:34:22.841Z,100228.13
2022-11-16T04:37:12.303Z,100222.97
2022-11-16T04:39:41.013Z,100225.63
2022-11-16T04:42:17.660Z,100229.16
2022-11-16T04:45:05.405Z,100225.66
2022-11-16T04:47:53.803Z,100232.56
2022-11-16T04:50:25.140Z,100220.53
2022-11-16T04:52:52.365Z,100229.19
2022-11-16T04:55:20.313Z,100214.31
2022-11-16T04:57:49.127Z,100209.09
2022-11-16T05:00:20.570Z,100202.13
2022-11-16T05:02:50.722Z,100208.28
2022-11-16T05:05:28.964Z,100202.25
2022-11-16T05:07:58.865Z,100205.66
2022-11-16T05:10:29.286Z,100206.47
2022-11-16T05:12:57.829Z,100215.25
2022-11-16T05:15:26.183Z,100215.25
2022-11-16T05:17:56.156Z,100208.28
2022-11-16T05:20:43.936Z,100214.47
2022-11-16T05:23:32.493Z,100218.81
2022-11-16T05:26:05.991Z,100219.69
2022-11-16T05:28:34.956Z,100217.16
2022-11-16T05:31:04.808Z,100215.44
2022-11-16T05:33:33.538Z,100213.69
2022-11-16T05:36:00.839Z,100218.03
2022-11-16T05:38:28.068Z,100205.00
2022-11-16T05:40:58.548Z,100219.03
2022-11-16T05:43:26.024Z,100212.13
2022-11-16T05:46:02.373Z,100211.28
2022-11-16T05:48:29.693Z,100197.47
2022-11-16T05:50:59.714Z,100198.41
2022-11-16T05:53:29.082Z,100212.41
2022-11-16T05:55:57.793Z,100191.53
2022-11-16T05:58:25.032Z,100195.00
2022-11-16T06:00:53.324Z,100202.13
2022-11-16T06:03:20.792Z,100204.81
2022-11-16T06:05:48.916Z,100199.56
2022-11-16T06:08:18.606Z,100202.13
2022-11-16T06:10:46.556Z,100190.81
2022-11-16T06:13:13.993Z,100197.06
2022-11-16T06:15:41.701Z,100196.22
2022-11-16T06:18:10.212Z,100195.34
2022-11-16T06:20:40.313Z,100185.69
2022-11-16T06:23:08.217Z,100193.59
2022-11-16T06:25:39.644Z,100207.50
2022-11-16T06:28:08.451Z,100192.63
2022-11-16T06:30:38.338Z,100201.34
2022-11-16T06:33:06.953Z,100194.41
2022-11-16T06:35:34.443Z,100197.94
2022-11-16T06:38:02.833Z,100200.53
2022-11-16T06:40:30.739Z,100201.47
2022-11-16T06:42:59.937Z,100200.53
2022-11-16T06:45:27.786Z,100171.66
2022-11-16T06:47:58.299Z,100209.25
2022-11-16T06:50:27.165Z,100190.03
2022-11-16T06:52:55.409Z,100199.63
2022-11-16T06:55:23.753Z,100201.31
2022-11-16T06:57:51.266Z,100202.16
2022-11-16T07:00:18.692Z,100202.13
2022-11-16T07:02:46.819Z,100201.28
2022-11-16T07:05:17.493Z,100201.19
2022-11-16T07:07:46.387Z,100196.00
2022-11-16T07:10:14.161Z,100195.13
2022-11-16T07:12:43.122Z,100196.88
2022-11-16T07:15:11.130Z,100194.19
2022-11-16T07:17:43.157Z,100207.41
2022-11-16T07:20:12.341Z,100203.91
2022-11-16T07:22:40.778Z,100210.06
2022-11-16T07:25:12.959Z,100182.06
2022-11-16T07:27:40.044Z,100201.34
2022-11-16T07:30:08.090Z,100207.47
2022-11-16T07:33:03.770Z,100216.19
2022-11-16T07:36:10.212Z,100189.09
2022-11-16T07:38:38.618Z,100214.53
2022-11-16T07:41:07.877Z,100218.91
2022-11-16T07:43:37.980Z,100215.47
2022-11-16T07:49:13.876Z,100211.25
2022-11-16T07:51:59.546Z,100217.38
2022-11-16T07:55:06.122Z,100221.81
2022-11-16T07:57:34.621Z,100221.03
2022-11-16T08:00:06.772Z,100231.56
2022-11-16T08:02:40.771Z,100229.88
2022-11-16T08:05:13.494Z,100215.94
2022-11-16T08:07:41.125Z,100231.63
2022-11-16T08:10:08.984Z,100232.56
2022-11-16T08:12:36.313Z,100237.84
2022-11-16T08:15:03.789Z,100239.63
2022-11-16T08:17:31.330Z,100243.22
2022-11-16T08:19:59.390Z,100243.25
2022-11-16T08:22:26.504Z,100237.97
2022-11-16T08:24:53.763Z,100243.28
2022-11-16T08:27:20.910Z,100240.69
2022-11-16T08:29:52.676Z,100238.00
2022-11-16T08:32:21.420Z,100243.31
2022-11-16T08:34:48.808Z,100239.81
2022-11-16T08:37:16.404Z,100234.59
2022-11-16T08:39:45.157Z,100248.59
2022-11-16T08:42:12.523Z,100233.75
2022-11-16T08:44:43.905Z,100238.09
2022-11-16T08:47:14.354Z,100229.41
2022-11-16T08:49:49.694Z,100230.25
2022-11-16T08:52:18.901Z,100228.53
2022-11-16T08:54:46.630Z,100224.16
2022-11-16T08:57:14.062Z,100227.63
2022-11-16T08:59:43.207Z,100225.91
2022-11-16T09:02:13.709Z,100232.06
2022-11-16T09:04:41.221Z,100223.31
2022-11-16T09:07:08.450Z,100231.19
2022-11-16T09:09:36.514Z,100216.31
2022-11-16T09:12:03.737Z,100226.84
2022-11-16T09:14:30.933Z,100228.56
2022-11-16T09:16:58.033Z,100223.34
2022-11-16T09:19:25.229Z,100216.34
2022-11-16T09:21:52.531Z,100214.63
2022-11-16T09:24:19.772Z,100218.09
2022-11-16T09:26:46.928Z,100211.09
2022-11-16T09:29:15.717Z,100218.06
2022-11-16T09:31:44.377Z,100202.31
2022-11-16T09:34:11.657Z,100197.06
2022-11-16T09:36:38.692Z,100188.34
2022-11-16T09:41:57.456Z,100185.72
2022-11-16T09:44:24.838Z,100196.19
2022-11-16T09:46:58.435Z,100197.06
2022-11-16T09:49:38.535Z,100198.81
2022-11-16T09:52:11.296Z,100205.81
2022-11-16T09:54:44.614Z,100202.28
2022-11-16T09:57:16.834Z,100204.91
2022-11-16T09:59:55.455Z,100209.22
2022-11-16T10:03:04.892Z,100196.97
2022-11-16T10:05:39.268Z,100208.34
2022-11-16T10:08:26.562Z,100206.59
2022-11-16T10:10:57.912Z,100201.34
2022-11-16T10:13:37.336Z,100184.72
2022-11-16T10:16:32.368Z,100183.81
2022-11-16T10:19:18.042Z,100196.00
2022-11-16T10:22:03.461Z,100182.88
2022-11-16T10:25:01.338Z,100174.13
2022-11-16T10:27:38.435Z,100172.38
2022-11-16T10:30:22.850Z,100166.25
2022-11-16T10:32:59.895Z,100162.78
2022-11-16T10:35:36.541Z,100163.72
2022-11-16T10:38:15.785Z,100158.41
2022-11-16T10:40:47.394Z,100157.56
2022-11-16T10:43:20.892Z,100155.81
2022-11-16T10:45:52.626Z,100153.22
2022-11-16T10:48:39.958Z,100152.31
2022-11-16T10:51:09.541Z,100134.84
2022-11-16T10:53:38.969Z,100142.72
2022-11-16T10:56:29.022Z,100126.97
2022-11-16T10:59:06.538Z,100133.09
2022-11-16T11:01:41.248Z,100143.59
2022-11-16T11:04:30.087Z,100113.84
2022-11-16T11:07:16.153Z,100136.50
2022-11-16T11:09:43.821Z,100126.84
2022-11-16T11:12:32.651Z,100095.47
2022-11-16T11:15:11.754Z,100128.59
2022-11-16T11:17:41.818Z,100119.88
2022-11-16T11:20:15.277Z,100100.66
2022-11-16T11:22:52.669Z,100090.97
2022-11-16T11:25:27.402Z,100090.03
2022-11-16T11:28:34.831Z,100079.59
2022-11-16T11:31:26.208Z,100069.03
2022-11-16T11:34:09.971Z,100070.75
2022-11-16T11:36:43.349Z,100069.78
2022-11-16T11:39:13.652Z,100050.63
2022-11-16T11:41:44.507Z,100068.03
2022-11-16T11:44:18.243Z,100067.06
2022-11-16T11:50:19.933Z,100054.78
2022-11-16T11:53:17.433Z,100043.25
2022-11-16T11:55:44.523Z,100035.19
2022-11-16T11:58:19.769Z,100022.94
2022-11-16T12:01:19.543Z,100032.50
2022-11-16T12:03:50.909Z,100017.41
2022-11-16T12:06:51.468Z,100020.75
2022-11-16T12:09:18.780Z,100005.75
2022-11-16T12:11:58.081Z,100008.16
2022-11-16T12:14:58.812Z,99996.66
2022-11-16T12:17:44.475Z,100001.94
2022-11-16T12:20:26.801Z,99997.53
2022-11-16T12:23:21.781Z,99981.03
2022-11-16T12:25:57.981Z,99979.28
2022-11-16T12:29:01.309Z,99964.44
2022-11-16T12:31:36.694Z,99945.16
2022-11-16T12:34:37.938Z,99954.63
2022-11-16T12:37:43.714Z,99938.00
2022-11-16T12:40:23.009Z,99944.03
2022-11-16T12:43:04.187Z,99944.91
2022-11-16T12:45:50.064Z,99941.38
2022-11-16T12:48:36.775Z,99907.28
2022-11-16T12:51:31.560Z,99928.09
2022-11-16T12:54:18.265Z,99914.91
2022-11-16T12:57:04.309Z,99920.09
2022-11-16T12:59:51.561Z,99916.50
2022-11-16T13:02:46.695Z,99903.22
2022-11-16T13:05:19.874Z,99883.75
2022-11-16T13:08:07.021Z,99885.53
2022-11-16T13:10:37.331Z,99869.03
2022-11-16T13:13:35.508Z,99862.00
2022-11-16T13:16:02.406Z,99857.59
2022-11-16T13:18:32.018Z,99840.09
2022-11-16T13:21:08.441Z,99846.06
2022-11-16T13:24:00.731Z,99838.09
2022-11-16T13:26:39.521Z,99848.75
2022-11-16T13:29:15.858Z,99849.72
2022-11-16T13:32:06.201Z,99845.34
2022-11-16T13:34:35.675Z,99839.19
2022-11-16T13:37:34.736Z,99827.78
2022-11-16T13:40:01.950Z,99829.56
2022-11-16T13:42:30.997Z,99817.28
2022-11-16T13:45:16.324Z,99792.97
2022-11-16T13:47:56.897Z,99784.72
2022-11-16T13:50:38.981Z,99779.59
2022-11-16T13:56:09.851Z,99777.88
2022-11-16T13:58:44.329Z,99763.03
2022-11-16T14:01:16.456Z,99736.97
2022-11-16T14:03:51.799Z,99726.47
2022-11-16T14:06:25.214Z,99733.25
2022-11-16T14:08:54.049Z,99731.31
2022-11-16T14:11:41.498Z,99723.41
2022-11-16T14:14:13.961Z,99723.66
2022-11-16T14:16:45.578Z,99710.63
2022-11-16T14:19:57.900Z,99720.09
2022-11-16T14:23:01.105Z,99721.00
2022-11-16T14:25:55.944Z,99705.19
2022-11-16T14:28:38.551Z,99696.50
2022-11-16T14:31:28.121Z,99703.47
2022-11-16T14:33:59.111Z,99694.88
2022-11-16T14:36:40.997Z,99701.84
2022-11-16T14:39:27.279Z,99706.28
2022-11-16T14:41:57.159Z,99702.63
2022-11-16T14:44:28.052Z,99694.56
2022-11-16T14:46:56.362Z,99710.28
2022-11-16T14:49:26.633Z,99693.88
2022-11-16T14:52:01.811Z,99686.81
2022-11-16T14:54:48.208Z,99667.69
2022-11-16T14:57:24.004Z,99638.94
2022-11-16T15:00:13.225Z,99664.16
2022-11-16T15:02:41.344Z,99652.03
2022-11-16T15:05:17.055Z,99648.63
2022-11-16T15:07:46.409Z,99653.94
2022-11-16T15:10:22.992Z,99636.47
2022-11-16T15:12:52.152Z,99634.66
2022-11-16T15:15:24.393Z,99600.84
2022-11-16T15:18:00.583Z,99639.34
2022-11-16T15:20:30.396Z,99634.25
2022-11-16T15:22:59.806Z,99623.81
2022-11-16T15:25:36.125Z,99629.88
2022-11-16T15:28:06.005Z,99621.34
2022-11-16T15:30:37.450Z,99624.84
2022-11-16T15:33:11.357Z,99621.28
2022-11-16T15:35:39.281Z,99615.31
2022-11-16T15:38:32.600Z,99631.97
2022-11-16T15:41:04.639Z,99647.78
2022-11-16T15:43:41.080Z,99639.22
2022-11-16T15:46:15.171Z,99644.47
2022-11-16T15:48:43.350Z,99654.25
2022-11-16T15:51:11.010Z,99666.50
2022-11-16T15:53:43.709Z,99648.13
2022-11-16T15:56:13.649Z,99641.31
2022-11-16T15:58:42.079Z,99657.88
2022-11-16T16:01:12.543Z,99666.53
2022-11-16T16:03:46.425Z,99636.16
2022-11-16T16:06:16.796Z,99651.84
2022-11-16T16:08:45.427Z,99637.03
2022-11-16T16:11:27.935Z,99637.09
2022-11-16T16:14:03.328Z,99612.66
2022-11-16T16:16:40.290Z,99593.47
2022-11-16T16:19:36.159Z,99593.47
2022-11-16T16:22:05.765Z,99601.31
2022-11-16T16:24:46.986Z,99596.22
2022-11-16T16:27:19.813Z,99608.38
2022-11-16T16:29:48.993Z,99598.94
2022-11-16T16:32:26.692Z,99603.28
2022-11-16T16:34:59.367Z,99565.84
2022-11-16T16:37:28.768Z,99568.38
2022-11-16T16:39:56.209Z,99565.88
2022-11-16T16:42:23.370Z,99566.78
2022-11-16T16:44:51.261Z,99587.72
2022-11-16T16:47:21.031Z,99565.22
2022-11-16T16:49:49.249Z,99605.16
2022-11-16T16:52:17.256Z,99622.69
2022-11-16T16:54:44.950Z,99635.91
2022-11-16T16:57:14.653Z,99636.81
2022-11-16T16:59:42.778Z,99641.25
2022-11-16T17:02:14.550Z,99642.97
2022-11-16T17:04:43.725Z,99650.94
2022-11-16T17:07:11.176Z,99657.09
2022-11-16T17:09:42.236Z,99644.88
2022-11-16T17:12:11.521Z,99664.06
2022-11-16T17:14:38.707Z,99664.00
2022-11-16T17:17:06.214Z,99664.09
2022-11-16T17:19:33.763Z,99660.59
2022-11-16T17:22:00.971Z,99657.00
2022-11-16T17:24:28.130Z,99658.81
2022-11-16T17:26:55.987Z,99669.31
2022-11-16T17:29:23.265Z,99646.50
2022-11-16T17:31:50.602Z,99663.22
2022-11-16T17:34:17.968Z,99644.00
2022-11-16T17:36:45.370Z,99637.03
2022-11-16T17:39:13.043Z,99630.00
2022-11-16T17:41:40.060Z,99625.78
2022-11-16T17:44:07.581Z,99612.72
2022-11-16T17:46:35.067Z,99612.75
2022-11-16T17:49:02.436Z,99607.56
2022-11-16T17:51:44.701Z,99598.81
2022-11-16T17:54:21.276Z,99604.88
2022-11-16T17:56:49.162Z,99610.06
2022-11-16T17:59:16.635Z,99593.53
2022-11-16T18:01:44.129Z,99599.47
2022-11-16T18:04:11.486Z,99610.91
2022-11-16T18:06:39.858Z,99616.22
2022-11-16T18:09:07.575Z,99618.72
2022-11-16T18:11:35.345Z,99627.47
2022-11-16T18:14:06.535Z,99606.63
2022-11-16T18:16:34.789Z,99601.28
2022-11-16T18:19:06.368Z,99564.69
2022-11-16T18:21:40.609Z,99560.16
2022-11-16T18:24:09.018Z,99572.53
2022-11-16T18:26:36.813Z,99577.75
2022-11-16T18:29:04.539Z,99584.75
2022-11-16T18:31:33.334Z,99589.06
2022-11-16T18:34:03.680Z,99590.88
2022-11-16T18:36:31.013Z,99597.00
2022-11-16T18:38:58.530Z,99611.78
2022-11-16T18:41:28.475Z,99612.63
2022-11-16T18:43:58.277Z,99605.59
2022-11-16T18:46:28.142Z,99616.88
2022-11-16T18:48:56.608Z,99611.72
2022-11-16T18:51:26.279Z,99572.63
2022-11-16T18:53:53.645Z,99607.38
2022-11-16T18:56:21.182Z,99583.00
2022-11-16T18:58:51.394Z,99582.13
2022-11-16T19:01:21.242Z,99572.53
2022-11-16T19:03:48.600Z,99560.31
2022-11-16T19:06:18.000Z,99573.44
2022-11-16T19:08:51.823Z,99599.66
2022-11-16T19:11:21.533Z,99607.56
2022-11-16T19:13:56.055Z,99625.00
2022-11-16T19:16:24.855Z,99610.13
2022-11-16T19:18:52.510Z,99588.31
2022-11-16T19:21:20.709Z,99584.72
2022-11-16T19:23:50.332Z,99572.50
2022-11-16T19:26:19.279Z,99588.25
2022-11-16T19:28:49.164Z,99593.41
2022-11-16T19:31:18.243Z,99590.78
2022-11-16T19:33:46.403Z,99580.41
2022-11-16T19:36:16.173Z,99575.19
2022-11-16T19:38:44.660Z,99562.97
2022-11-16T19:41:14.076Z,99565.66
2022-11-16T19:43:41.981Z,99588.25
2022-11-16T19:46:17.839Z,99588.25
2022-11-16T19:48:46.382Z,99574.47
2022-11-16T19:51:16.635Z,99641.44
2022-11-16T19:53:44.563Z,99632.84
2022-11-16T19:56:14.895Z,99617.19
2022-11-16T19:58:42.782Z,99618.91
2022-11-16T20:01:36.782Z,99622.25
2022-11-16T20:04:05.300Z,99595.34
2022-11-16T20:06:39.268Z,99617.88
2022-11-16T20:09:10.191Z,99625.75
2022-11-16T20:11:39.808Z,99624.97
2022-11-16T20:14:10.454Z,99579.63
2022-11-16T20:16:42.509Z,99643.22
2022-11-16T20:19:10.702Z,99639.63
2022-11-16T20:21:42.818Z,99605.66
2022-11-16T20:24:13.564Z,99633.50
2022-11-16T20:26:46.884Z,99627.38
2022-11-16T20:29:18.004Z,99644.66
2022-11-16T20:31:46.693Z,99643.78
2022-11-16T20:34:18.218Z,99629.84
2022-11-16T20:36:47.462Z,99639.53
2022-11-16T20:39:17.046Z,99641.84
2022-11-16T20:41:44.917Z,99648.75
2022-11-16T20:44:16.776Z,99670.50
2022-11-16T20:46:45.486Z,99688.72
2022-11-16T20:49:13.123Z,99695.66
2022-11-16T20:51:41.431Z,99690.47
2022-11-16T20:54:08.774Z,99677.19
2022-11-16T20:56:36.455Z,99676.31
2022-11-16T20:59:03.842Z,99663.16
2022-11-16T21:01:34.058Z,99651.84
2022-11-16T21:04:04.251Z,99672.06
2022-11-16T21:06:32.676Z,99676.47
2022-11-16T21:09:00.802Z,99682.56
2022-11-16T21:11:30.218Z,99685.97
2022-11-16T21:14:16.626Z,99660.91
2022-11-16T21:16:44.872Z,99701.88
2022-11-16T21:19:12.790Z,99657.63
2022-11-16T21:21:41.360Z,99709.66
2022-11-16T21:24:10.034Z,99694.75
2022-11-16T21:26:38.272Z,99693.84
2022-11-16T21:29:06.052Z,99693.88
2022-11-16T21:31:36.557Z,99684.25
2022-11-16T21:34:05.493Z,99681.66
2022-11-16T21:36:33.491Z,99693.25
2022-11-16T21:39:01.306Z,99694.22
2022-11-16T21:41:28.934Z,99701.34
2022-11-16T21:43:56.519Z,99697.03
2022-11-16T21:46:27.081Z,99724.06
2022-11-16T21:48:57.064Z,99715.34
2022-11-16T21:51:34.127Z,99674.47
2022-11-16T21:54:01.399Z,99701.44
2022-11-16T21:56:28.796Z,99696.22
2022-11-16T21:58:55.963Z,99700.63
2022-11-16T22:01:24.099Z,99712.84
2022-11-16T22:04:12.795Z,99721.69
2022-11-16T22:06:58.265Z,99716.47
2022-11-16T22:09:25.698Z,99726.94
2022-11-16T22:11:52.890Z,99701.72
2022-11-16T22:14:20.147Z,99718.31
2022-11-16T22:16:47.741Z,99725.22
2022-11-16T22:19:15.067Z,99735.75
2022-11-16T22:21:42.125Z,99738.31
2022-11-16T22:24:09.389Z,99740.19
2022-11-16T22:26:38.570Z,99742.84
2022-11-16T22:29:06.068Z,99732.34
2022-11-16T22:31:33.332Z,99727.97
2022-11-16T22:34:00.569Z,99746.31
2022-11-16T22:36:27.763Z,99755.13
2022-11-16T22:38:57.444Z,99731.72
2022-11-16T22:41:24.820Z,99774.44
2022-11-16T22:43:52.105Z,99773.59
2022-11-16T22:46:19.657Z,99791.09
2022-11-16T22:48:48.084Z,99780.59
2022-11-16T22:51:15.126Z,99752.78
2022-11-16T22:53:42.473Z,99773.56
2022-11-16T22:56:10.891Z,99779.72
2022-11-16T22:58:40.363Z,99785.84
2022-11-16T23:01:09.660Z,99785.00
2022-11-16T23:03:38.538Z,99784.19
2022-11-16T23:06:07.166Z,99797.28
2022-11-16T23:08:35.629Z,99785.09
2022-11-16T23:11:33.319Z,99800.78
2022-11-16T23:14:22.077Z,99806.97
2022-11-16T23:16:49.981Z,99825.22
2022-11-16T23:19:37.761Z,99807.78
2022-11-16T23:22:24.445Z,99813.84
2022-11-16T23:25:10.277Z,99786.91
2022-11-16T23:27:40.957Z,99821.78
2022-11-16T23:30:12.820Z,99829.66
2022-11-16T23:32:41.876Z,99820.97
2022-11-16T23:35:10.698Z,99813.97
2022-11-16T23:37:55.074Z,99783.41
2022-11-16T23:40:25.314Z,99782.53
2022-11-16T23:43:14.925Z,99760.75
2022-11-16T23:45:43.236Z,99788.63
2022-11-16T23:48:12.193Z,99765.16
2022-11-16T23:50:39.600Z,99761.72
2022-11-16T23:53:08.475Z,99797.47
2022-11-16T23:55:38.595Z,99794.88
2022-11-16T23:58:06.884Z,99794.06
